Time;durP1;ratioP1;P1;durP2;ratioP2;P2;SDS_P1;SDS_P2;PMS_P1;PMS_P2;Temp;Humidity;BMP_temperature;BMP_pressure;BME280_temperature;BME280_humidity;BME280_pressure;Samples;Min_cycle;Max_cycle;Signal;HPM_P1;HPM_P2
2023/08/29 00:00:29;;;;;;;5.07;2.90;;;;;;;-144.73;100.00;54483.66;5012984;28;20033;-72
2023/08/29 00:02:54;;;;;;;5.85;3.22;;;;;;;-144.73;100.00;54452.84;5022953;28;20080;-73
2023/08/29 00:05:20;;;;;;;7.80;3.58;;;;;;;-144.73;100.00;54469.28;5003789;28;20036;-73
2023/08/29 00:07:46;;;;;;;7.93;3.15;;;;;;;-144.73;100.00;54452.84;5009635;28;20121;-72
2023/08/29 00:10:14;;;;;;;6.68;3.58;;;;;;;-144.73;100.00;54456.97;5006355;28;20037;-73
2023/08/29 00:12:41;;;;;;;4.28;2.55;;;;;;;-144.73;100.00;54452.84;5001558;28;20117;-73
2023/08/29 00:15:07;;;;;;;6.28;2.75;;;;;;;-144.73;100.00;54432.31;5020327;28;20065;-73
2023/08/29 00:17:32;;;;;;;7.90;2.97;;;;;;;-144.73;100.00;54485.69;5027157;28;20017;-72
2023/08/29 00:19:58;;;;;;;8.13;3.58;;;;;;;-144.73;100.00;54395.38;5017055;28;20034;-73
2023/08/29 00:22:23;;;;;;;7.55;3.53;;;;;;;-144.73;100.00;54448.75;4995398;28;20109;-73
2023/08/29 00:24:52;;;;;;;5.65;3.20;;;;;;;-144.73;100.00;54461.06;4996219;28;20053;-72
2023/08/29 00:27:18;;;;;;;5.68;2.97;;;;;;;-144.73;100.00;54456.97;4986581;28;20033;-73
2023/08/29 00:29:43;;;;;;;7.55;3.58;;;;;;;-144.73;100.00;54428.22;4993717;28;20065;-73
2023/08/29 00:32:10;;;;;;;9.80;3.75;;;;;;;-144.73;100.00;54465.16;4994622;28;20057;-73
2023/08/29 00:34:36;;;;;;;5.30;3.05;;;;;;;-144.73;100.00;54481.59;4993170;28;20064;-73
2023/08/29 00:37:02;;;;;;;6.00;3.50;;;;;;;-144.73;100.00;54448.75;5006830;28;20014;-73
2023/08/29 00:39:27;;;;;;;5.55;3.28;;;;;;;-144.73;100.00;54456.97;4994030;28;20040;-72
2023/08/29 00:41:53;;;;;;;5.55;3.60;;;;;;;-144.73;100.00;54456.97;5010656;28;20115;-72
2023/08/29 00:44:18;;;;;;;5.25;3.63;;;;;;;-144.73;100.00;54493.91;5003463;28;20089;-72
2023/08/29 00:46:45;;;;;;;6.53;2.97;;;;;;;-144.73;100.00;54465.16;4998725;28;20078;-72
2023/08/29 00:49:12;;;;;;;9.65;3.38;;;;;;;-144.73;100.00;54465.16;5004412;28;20026;-73
2023/08/29 00:51:39;;;;;;;9.50;4.72;;;;;;;-144.73;100.00;54452.84;5017432;28;20089;-72
2023/08/29 00:54:06;;;;;;;10.88;4.38;;;;;;;-144.73;100.00;54444.66;4997404;28;20105;-73
2023/08/29 00:56:32;;;;;;;6.30;3.65;;;;;;;-144.73;100.00;54436.44;5000165;28;20150;-73
2023/08/29 00:58:59;;;;;;;6.50;3.88;;;;;;;-144.73;100.00;54469.28;5004051;28;20469;-72
2023/08/29 01:01:25;;;;;;;11.38;4.22;;;;;;;-144.73;100.00;54467.22;5007472;28;20481;-73
2023/08/29 01:03:51;;;;;;;7.03;4.30;;;;;;;-144.73;100.00;54516.47;4999558;28;20041;-72
2023/08/29 01:06:17;;;;;;;6.97;4.13;;;;;;;-144.73;100.00;54485.69;4992599;28;20080;-72
2023/08/29 01:08:46;;;;;;;9.23;4.35;;;;;;;-144.73;100.00;54463.13;4998763;28;20026;-73
2023/08/29 01:11:21;;;;;;;9.55;4.25;;;;;;;-144.73;100.00;54454.91;4995282;28;20089;-73
2023/08/29 01:14:11;;;;;;;6.93;4.43;;;;;;;-144.73;100.00;54440.53;5017305;28;20080;-73
2023/08/29 01:16:42;;;;;;;7.40;3.60;;;;;;;-144.73;100.00;54432.31;5001907;28;20037;-72
2023/08/29 01:19:14;;;;;;;10.98;4.47;;;;;;;-144.73;100.00;54461.06;5021005;28;20014;-72
2023/08/29 01:22:02;;;;;;;7.40;4.03;;;;;;;-144.73;100.00;54463.13;5011007;28;20060;-73
2023/08/29 01:24:44;;;;;;;10.32;3.90;;;;;;;-144.73;100.00;54432.31;4994389;28;21078;-72
2023/08/29 01:27:09;;;;;;;6.72;4.07;;;;;;;-144.73;100.00;54444.66;5007134;28;20021;-73
2023/08/29 01:29:35;;;;;;;5.60;3.47;;;;;;;-144.73;100.00;54440.53;4992953;28;20088;-73
2023/08/29 01:32:03;;;;;;;4.85;3.38;;;;;;;-144.73;100.00;54465.16;5002135;28;20030;-73
2023/08/29 01:34:29;;;;;;;5.43;3.47;;;;;;;-144.73;100.00;54456.97;4999164;28;20052;-73
2023/08/29 01:36:55;;;;;;;8.43;3.95;;;;;;;-144.73;100.00;54465.16;5006609;28;20109;-73
2023/08/29 01:39:20;;;;;;;6.20;3.67;;;;;;;-144.73;100.00;54450.81;5002080;28;20029;-72
2023/08/29 01:41:45;;;;;;;5.90;3.92;;;;;;;-144.73;100.00;54477.47;5009042;28;20033;-73
2023/08/29 01:44:11;;;;;;;7.93;5.00;;;;;;;-144.73;100.00;54452.84;4999004;28;20076;-73
2023/08/29 01:46:37;;;;;;;6.05;3.83;;;;;;;-144.73;100.00;54461.06;5001640;28;20032;-73
2023/08/29 01:49:03;;;;;;;10.05;4.50;;;;;;;-144.73;100.00;54440.53;4998074;28;20022;-73
2023/08/29 01:51:28;;;;;;;11.75;3.65;;;;;;;-144.73;100.00;54491.84;5002514;28;20034;-73
2023/08/29 01:53:54;;;;;;;8.18;3.70;;;;;;;-144.73;100.00;54461.06;5003460;28;20041;-73
2023/08/29 01:56:22;;;;;;;7.22;3.88;;;;;;;-144.73;100.00;54477.47;5002138;28;20030;-72
2023/08/29 01:58:51;;;;;;;9.43;4.18;;;;;;;-144.73;100.00;54469.28;5027852;28;20013;-72
2023/08/29 02:01:16;;;;;;;7.25;5.00;;;;;;;-144.73;100.00;54469.28;4999000;28;20045;-72
2023/08/29 02:03:42;;;;;;;8.10;4.65;;;;;;;-144.73;100.00;54481.59;4996973;28;20034;-73
2023/08/29 02:06:07;;;;;;;8.52;4.03;;;;;;;-144.73;100.00;54481.59;5014007;28;20029;-73
2023/08/29 02:08:32;;;;;;;5.35;3.88;;;;;;;-144.73;100.00;54467.22;4997186;28;20036;-72
2023/08/29 02:10:58;;;;;;;8.95;4.28;;;;;;;-144.73;100.00;54485.69;4995632;28;20034;-72
2023/08/29 02:13:23;;;;;;;13.90;4.72;;;;;;;-144.73;100.00;54502.13;5004865;28;20033;-72
2023/08/29 02:15:48;;;;;;;6.35;3.88;;;;;;;-144.73;100.00;54456.97;5002432;28;20091;-72
2023/08/29 02:18:14;;;;;;;6.47;4.60;;;;;;;-144.73;100.00;54436.44;5002442;28;20068;-72
2023/08/29 02:20:40;;;;;;;8.48;4.43;;;;;;;-144.73;100.00;54481.59;4997816;28;20030;-73
2023/08/29 02:23:05;;;;;;;6.80;3.40;;;;;;;-144.73;100.00;54485.69;5022117;28;20026;-72
2023/08/29 02:25:30;;;;;;;9.52;4.63;;;;;;;-144.73;100.00;54456.97;5017499;28;20053;-73
2023/08/29 02:27:56;;;;;;;8.32;5.15;;;;;;;-144.73;100.00;54440.53;5001160;28;20030;-72
2023/08/29 02:30:21;;;;;;;15.63;5.72;;;;;;;-144.73;100.00;54461.06;5006377;28;20029;-73
2023/08/29 02:32:46;;;;;;;7.38;4.90;;;;;;;-144.73;100.00;54481.59;5004691;28;20047;-72
2023/08/29 02:35:12;;;;;;;7.90;4.65;;;;;;;-144.73;100.00;54473.38;5000998;28;20045;-73
2023/08/29 02:37:38;;;;;;;9.13;4.97;;;;;;;-144.73;100.00;54504.16;5020133;28;20076;-73
2023/08/29 02:40:10;;;;;;;6.22;4.15;;;;;;;-144.73;100.00;54506.22;5008574;28;20055;-73
2023/08/29 02:42:36;;;;;;;6.15;5.20;;;;;;;-144.73;100.00;54444.66;5002558;28;20164;-73
2023/08/29 02:45:03;;;;;;;9.23;4.72;;;;;;;-144.73;100.00;54518.53;4994550;28;20397;-73
2023/08/29 02:47:28;;;;;;;7.07;4.85;;;;;;;-144.73;100.00;54444.66;5003728;28;20030;-73
2023/08/29 02:49:54;;;;;;;7.90;4.97;;;;;;;-144.73;100.00;54502.13;4994321;28;20042;-73
2023/08/29 02:52:20;;;;;;;9.55;5.18;;;;;;;-144.73;100.00;54454.91;5003384;28;20029;-73
2023/08/29 02:54:45;;;;;;;7.50;5.50;;;;;;;-144.73;100.00;54473.38;5005815;28;20033;-73
2023/08/29 02:57:11;;;;;;;6.90;5.22;;;;;;;-144.73;100.00;54493.91;5003715;28;20052;-73
2023/08/29 02:59:36;;;;;;;13.68;6.78;;;;;;;-144.73;100.00;54493.91;5007716;28;20037;-72
2023/08/29 03:02:03;;;;;;;7.68;5.45;;;;;;;-144.73;100.00;54469.28;5005989;28;20026;-73
2023/08/29 03:04:29;;;;;;;7.50;4.55;;;;;;;-144.73;100.00;54493.91;4999748;28;20042;-73
2023/08/29 03:06:54;;;;;;;6.32;4.70;;;;;;;-144.73;100.00;54477.47;4993524;28;20022;-73
2023/08/29 03:09:20;;;;;;;6.25;4.60;;;;;;;-144.73;100.00;54469.28;4994430;28;20036;-73
2023/08/29 03:11:45;;;;;;;8.82;5.00;;;;;;;-144.73;100.00;54498.00;5015014;28;20491;-73
2023/08/29 03:14:10;;;;;;;8.85;4.57;;;;;;;-144.73;100.00;54469.28;5010897;28;20063;-73
2023/08/29 03:16:36;;;;;;;7.05;4.60;;;;;;;-144.73;100.00;54448.75;5003093;28;20030;-73
2023/08/29 03:19:01;;;;;;;8.85;4.75;;;;;;;-144.73;100.00;54485.69;5022221;28;20017;-72
2023/08/29 03:21:27;;;;;;;8.10;4.68;;;;;;;-144.73;100.00;54452.84;5006247;28;20044;-73
2023/08/29 03:23:52;;;;;;;9.38;4.78;;;;;;;-144.73;100.00;54481.59;5007556;28;20029;-73
2023/08/29 03:26:17;;;;;;;7.78;5.07;;;;;;;-144.73;100.00;54477.47;5007985;28;20044;-73
2023/08/29 03:28:45;;;;;;;7.45;5.22;;;;;;;-144.73;100.00;54452.84;4996155;28;20110;-73
2023/08/29 03:31:12;;;;;;;7.88;4.65;;;;;;;-144.73;100.00;54465.16;5001453;28;20112;-72
2023/08/29 03:33:39;;;;;;;6.35;5.00;;;;;;;-144.73;100.00;54514.44;5000245;28;20030;-72
2023/08/29 03:36:05;;;;;;;9.05;6.63;;;;;;;-144.73;100.00;54463.13;4992546;28;20038;-72
2023/08/29 03:38:30;;;;;;;14.73;7.00;;;;;;;-144.73;100.00;54493.91;4995795;28;20080;-71
2023/08/29 03:40:59;;;;;;;12.35;5.95;;;;;;;-144.73;100.00;54436.44;4995360;28;20034;-71
2023/08/29 03:43:27;;;;;;;10.05;7.70;;;;;;;-144.73;100.00;54502.13;5024291;28;20085;-72
2023/08/29 03:46:03;;;;;;;15.30;6.20;;;;;;;-144.73;100.00;54477.47;5022156;28;20041;-72
2023/08/29 03:48:30;;;;;;;14.15;6.72;;;;;;;-144.73;100.00;54469.28;5006165;28;21131;-72
2023/08/29 03:50:55;;;;;;;8.80;5.70;;;;;;;-144.73;100.00;54469.28;5006370;28;20034;-72
2023/08/29 03:53:22;;;;;;;10.50;6.50;;;;;;;-144.73;100.00;54493.91;5020740;28;20393;-72
2023/08/29 03:55:48;;;;;;;10.05;5.68;;;;;;;-144.73;100.00;54477.47;5006517;28;20030;-72
2023/08/29 03:58:14;;;;;;;7.88;5.82;;;;;;;-144.73;100.00;54516.47;5022648;28;20083;-72
2023/08/29 04:00:40;;;;;;;9.40;5.90;;;;;;;-144.73;100.00;54477.47;5010619;28;20034;-72
2023/08/29 04:03:06;;;;;;;7.72;5.75;;;;;;;-144.73;100.00;54448.75;5007458;28;20029;-72
2023/08/29 04:05:32;;;;;;;9.48;6.43;;;;;;;-144.73;100.00;54469.28;4998863;28;20026;-72
2023/08/29 04:07:57;;;;;;;8.60;6.88;;;;;;;-144.73;100.00;54469.28;5005997;28;20048;-72
2023/08/29 04:10:22;;;;;;;10.88;6.13;;;;;;;-144.73;100.00;54489.81;4998274;28;20042;-72
2023/08/29 04:12:48;;;;;;;7.47;6.25;;;;;;;-144.73;100.00;54477.47;5013642;28;20033;-72
2023/08/29 04:15:13;;;;;;;10.65;6.35;;;;;;;-144.73;100.00;54454.91;5005808;28;20033;-72
2023/08/29 04:17:39;;;;;;;8.35;5.95;;;;;;;-144.73;100.00;54487.75;4997731;28;20033;-73
2023/08/29 04:20:08;;;;;;;10.02;5.88;;;;;;;-144.73;100.00;54489.81;5010941;28;20049;-73
2023/08/29 04:22:38;;;;;;;8.55;6.28;;;;;;;-144.73;100.00;54436.44;4997516;28;20040;-73
2023/08/29 04:25:04;;;;;;;9.70;6.28;;;;;;;-144.73;100.00;54456.97;5002576;28;20108;-73
2023/08/29 04:27:30;;;;;;;7.38;5.80;;;;;;;-144.73;100.00;54465.16;5000990;28;20021;-73
2023/08/29 04:29:56;;;;;;;8.68;6.85;;;;;;;-144.73;100.00;54444.66;5030827;28;20030;-73
2023/08/29 04:32:22;;;;;;;12.40;6.50;;;;;;;-144.73;100.00;54465.16;5006208;28;20017;-73
2023/08/29 04:34:47;;;;;;;7.72;6.10;;;;;;;-144.73;100.00;54514.44;4997179;28;20112;-73
2023/08/29 04:37:13;;;;;;;13.18;6.68;;;;;;;-144.73;100.00;54477.47;5002721;28;20036;-73
2023/08/29 04:39:38;;;;;;;10.95;6.30;;;;;;;-144.73;100.00;54489.81;4999305;28;20038;-73
2023/08/29 04:42:04;;;;;;;11.70;6.47;;;;;;;-144.73;100.00;54481.59;4999872;28;20180;-73
2023/08/29 04:44:29;;;;;;;10.27;6.30;;;;;;;-144.73;100.00;54493.91;5017889;28;20049;-73
2023/08/29 04:46:55;;;;;;;10.02;7.15;;;;;;;-144.73;100.00;54493.91;5002247;28;20026;-72
2023/08/29 04:49:20;;;;;;;12.38;6.93;;;;;;;-144.73;100.00;54485.69;5000093;28;20032;-72
2023/08/29 04:51:46;;;;;;;19.08;9.77;;;;;;;-144.73;100.00;54465.16;4999208;28;20018;-73
2023/08/29 04:54:11;;;;;;;21.08;12.73;;;;;;;-144.73;100.00;54469.28;4994619;28;20025;-73
2023/08/29 04:56:37;;;;;;;13.77;7.38;;;;;;;-144.73;100.00;54491.84;5002540;28;20022;-73
2023/08/29 04:59:03;;;;;;;12.60;6.47;;;;;;;-144.73;100.00;54510.31;4998148;28;20081;-73
2023/08/29 05:01:29;;;;;;;10.48;6.80;;;;;;;-144.73;100.00;54506.22;5018063;28;20029;-73
2023/08/29 05:03:54;;;;;;;11.63;6.10;;;;;;;-144.73;100.00;54528.81;5001482;28;20036;-72
2023/08/29 05:06:19;;;;;;;8.88;5.95;;;;;;;-144.73;100.00;54493.91;5013078;28;20113;-73
2023/08/29 05:08:45;;;;;;;8.15;5.70;;;;;;;-144.73;100.00;54498.00;4994304;28;20018;-73
2023/08/29 05:11:10;;;;;;;13.40;6.13;;;;;;;-144.73;100.00;54456.97;5000471;28;20040;-73
2023/08/29 05:13:35;;;;;;;14.23;6.47;;;;;;;-144.73;100.00;54506.22;5021561;28;20045;-73
2023/08/29 05:16:01;;;;;;;12.68;6.45;;;;;;;-144.73;100.00;54508.28;5019692;28;20030;-73
2023/08/29 05:18:27;;;;;;;15.63;6.57;;;;;;;-144.73;100.00;54459.00;5001836;28;20025;-73
2023/08/29 05:20:52;;;;;;;9.63;5.97;;;;;;;-144.73;100.00;54477.47;5020222;28;20029;-73
2023/08/29 05:23:17;;;;;;;10.90;5.90;;;;;;;-144.73;100.00;54512.38;5011865;28;20032;-73
2023/08/29 05:25:43;;;;;;;8.77;6.78;;;;;;;-144.73;100.00;54489.81;4998078;28;20121;-73
2023/08/29 05:28:08;;;;;;;11.40;6.15;;;;;;;-144.73;100.00;54461.06;4993883;28;20129;-73
2023/08/29 05:30:35;;;;;;;9.98;5.07;;;;;;;-144.73;100.00;54485.69;4995705;28;20052;-73
2023/08/29 05:33:00;;;;;;;7.00;5.40;;;;;;;-144.73;100.00;54518.53;5028231;28;20031;-73
2023/08/29 05:35:26;;;;;;;9.35;5.63;;;;;;;-144.73;100.00;54469.28;5000192;28;20112;-73
2023/08/29 05:37:51;;;;;;;9.98;6.55;;;;;;;-144.73;100.00;54473.38;5009717;28;20018;-73
2023/08/29 05:40:16;;;;;;;17.83;10.32;;;;;;;-144.73;100.00;54487.75;5003988;28;20045;-73
2023/08/29 05:42:42;;;;;;;11.98;7.05;;;;;;;-144.73;100.00;54489.81;5013885;28;20022;-73
2023/08/29 05:45:07;;;;;;;8.63;6.88;;;;;;;-144.73;100.00;54489.81;4999507;28;20037;-73
2023/08/29 05:47:33;;;;;;;12.75;7.00;;;;;;;-144.73;100.00;54506.22;4999372;28;20026;-73
2023/08/29 05:49:59;;;;;;;12.98;7.53;;;;;;;-144.73;100.00;54504.16;5013976;28;20112;-73
2023/08/29 05:52:24;;;;;;;13.98;7.85;;;;;;;-144.73;100.00;54522.63;5002933;28;20014;-73
2023/08/29 05:54:49;;;;;;;9.18;6.93;;;;;;;-144.73;100.00;54510.31;5028519;28;20055;-73
2023/08/29 05:57:15;;;;;;;10.95;7.35;;;;;;;-144.73;100.00;54506.22;4998357;28;20064;-73
2023/08/29 05:59:40;;;;;;;11.88;8.52;;;;;;;-144.73;100.00;54475.44;5003866;28;20030;-73
2023/08/29 06:02:06;;;;;;;15.30;8.07;;;;;;;-144.73;100.00;54477.47;5020388;28;20055;-73
2023/08/29 06:04:32;;;;;;;13.82;8.65;;;;;;;-144.73;100.00;54473.38;5004264;28;20038;-73
2023/08/29 06:06:58;;;;;;;15.20;8.20;;;;;;;-144.73;100.00;54479.53;5006018;28;20033;-73
2023/08/29 06:09:23;;;;;;;11.70;8.50;;;;;;;-144.73;100.00;54473.38;5007027;28;20026;-73
2023/08/29 06:11:49;;;;;;;17.15;9.80;;;;;;;-144.73;100.00;54502.13;5011204;28;20033;-73
2023/08/29 06:14:14;;;;;;;14.60;8.70;;;;;;;-144.73;100.00;54461.06;5019726;28;20032;-73
2023/08/29 06:16:40;;;;;;;15.32;9.10;;;;;;;-144.73;100.00;54465.16;5003580;28;20029;-73
2023/08/29 06:19:05;;;;;;;19.83;9.40;;;;;;;-144.73;100.00;54489.81;5006812;28;20029;-73
2023/08/29 06:21:30;;;;;;;17.73;10.88;;;;;;;-144.73;100.00;54498.00;5003363;28;20042;-73
2023/08/29 06:23:56;;;;;;;18.33;9.30;;;;;;;-144.73;100.00;54475.44;5002876;28;20026;-73
2023/08/29 06:26:21;;;;;;;20.65;10.43;;;;;;;-144.73;100.00;54510.31;5004017;28;20034;-73
2023/08/29 06:28:47;;;;;;;25.10;10.70;;;;;;;-144.73;100.00;54500.06;5003940;28;20081;-73
2023/08/29 06:31:12;;;;;;;17.48;10.10;;;;;;;-144.73;100.00;54489.81;5001244;28;20033;-73
2023/08/29 06:33:39;;;;;;;16.02;9.98;;;;;;;-144.73;100.00;54461.06;4997914;28;20134;-73
2023/08/29 06:36:05;;;;;;;16.20;9.68;;;;;;;-144.73;100.00;54469.28;4996299;28;20050;-74
2023/08/29 06:38:30;;;;;;;15.15;10.32;;;;;;;-144.73;100.00;54502.13;4999082;28;20050;-73
2023/08/29 06:40:57;;;;;;;15.65;9.55;;;;;;;-144.73;100.00;54473.38;4996001;28;20505;-73
2023/08/29 06:43:23;;;;;;;16.83;9.20;;;;;;;-144.73;100.00;54481.59;4995480;28;20095;-74
2023/08/29 06:45:49;;;;;;;15.70;8.60;;;;;;;-144.73;100.00;54495.97;4996244;28;20034;-73
2023/08/29 06:48:14;;;;;;;13.68;8.25;;;;;;;-144.73;100.00;54477.47;4996691;28;20022;-73
2023/08/29 06:50:40;;;;;;;13.65;8.07;;;;;;;-144.73;100.00;54477.47;4995890;28;20029;-73
2023/08/29 06:53:05;;;;;;;10.65;7.50;;;;;;;-144.73;100.00;54481.59;5002067;28;20026;-73
2023/08/29 06:55:34;;;;;;;14.63;8.13;;;;;;;-144.73;100.00;54461.06;5000264;28;20059;-73
2023/08/29 06:58:00;;;;;;;11.52;7.45;;;;;;;-144.73;100.00;54477.47;4997293;28;20071;-73
2023/08/29 07:00:25;;;;;;;15.38;7.35;;;;;;;-144.73;100.00;54481.59;5000827;28;20053;-74
2023/08/29 07:02:51;;;;;;;10.38;6.32;;;;;;;-144.73;100.00;54481.59;5001080;28;20025;-73
2023/08/29 07:05:16;;;;;;;13.10;6.72;;;;;;;-144.73;100.00;54493.91;5004576;28;20056;-74
2023/08/29 07:07:43;;;;;;;10.98;6.85;;;;;;;-144.73;100.00;54498.00;5000058;28;20017;-73
2023/08/29 07:10:09;;;;;;;14.95;7.00;;;;;;;-144.73;100.00;54524.69;5020276;28;20042;-73
2023/08/29 07:12:34;;;;;;;11.35;7.07;;;;;;;-144.73;100.00;54502.13;5016779;28;20026;-73
2023/08/29 07:15:00;;;;;;;9.32;6.35;;;;;;;-144.73;100.00;54473.38;5013037;28;20108;-74
2023/08/29 07:17:27;;;;;;;14.60;6.80;;;;;;;-144.73;100.00;54489.81;5024204;28;20027;-74
2023/08/29 07:19:52;;;;;;;12.43;6.25;;;;;;;-144.73;100.00;54461.06;5008754;28;20049;-74
2023/08/29 07:22:18;;;;;;;9.82;5.10;;;;;;;-144.73;100.00;54481.59;5020600;28;20523;-73
2023/08/29 07:24:43;;;;;;;7.50;5.35;;;;;;;-144.73;100.00;54479.53;4999542;28;20574;-73
2023/08/29 07:27:09;;;;;;;16.08;8.30;;;;;;;-144.73;100.00;54487.75;5000083;28;20105;-74
2023/08/29 07:29:34;;;;;;;12.18;7.10;;;;;;;-144.73;100.00;54442.59;4978277;28;20045;-73
2023/08/29 07:32:00;;;;;;;13.50;5.88;;;;;;;-144.73;100.00;54456.97;4993965;28;20104;-72
2023/08/29 07:34:25;;;;;;;9.65;5.68;;;;;;;-144.73;100.00;54493.91;5007811;28;20345;-72
2023/08/29 07:36:51;;;;;;;9.60;5.43;;;;;;;-144.73;100.00;54479.53;5010524;28;20038;-72
2023/08/29 07:39:18;;;;;;;9.63;4.55;;;;;;;-144.73;100.00;54454.91;4998635;28;20030;-72
2023/08/29 07:41:45;;;;;;;13.02;5.25;;;;;;;-144.73;100.00;54485.69;5010548;28;20029;-72
2023/08/29 07:44:10;;;;;;;11.15;5.50;;;;;;;-144.73;100.00;54504.16;4989550;28;20039;-72
2023/08/29 07:46:36;;;;;;;12.07;4.78;;;;;;;-144.73;100.00;54477.47;4991111;28;20030;-72
2023/08/29 07:49:01;;;;;;;6.88;4.75;;;;;;;-144.73;100.00;54461.06;5009237;28;20018;-72
2023/08/29 07:51:26;;;;;;;5.97;4.70;;;;;;;-144.73;100.00;54493.91;4993600;28;20029;-72
2023/08/29 07:53:52;;;;;;;8.50;4.90;;;;;;;-144.73;100.00;54508.28;5000730;28;20589;-72
2023/08/29 07:56:17;;;;;;;8.63;4.22;;;;;;;-144.73;100.00;54481.59;5013399;28;20038;-72
2023/08/29 07:58:43;;;;;;;15.98;4.60;;;;;;;-144.73;100.00;54473.38;5001570;28;20081;-72
2023/08/29 08:01:08;;;;;;;9.20;4.25;;;;;;;-144.73;100.00;54483.66;4994239;28;20555;-72
2023/08/29 08:03:34;;;;;;;7.90;4.65;;;;;;;-144.73;100.00;54500.06;5019846;28;20116;-72
2023/08/29 08:06:00;;;;;;;11.85;5.47;;;;;;;-144.73;100.00;54477.47;4994480;28;20034;-72
2023/08/29 08:08:25;;;;;;;12.18;4.22;;;;;;;-144.73;100.00;54446.69;4995793;28;20156;-72
2023/08/29 08:10:50;;;;;;;9.68;4.68;;;;;;;-144.73;100.00;54461.06;5014604;28;20514;-72
2023/08/29 08:13:16;;;;;;;9.02;4.80;;;;;;;-144.73;100.00;54469.28;4998271;28;20041;-71
2023/08/29 08:15:41;;;;;;;8.07;4.43;;;;;;;-144.73;100.00;54467.22;4996126;28;20029;-72
2023/08/29 08:18:08;;;;;;;8.73;4.80;;;;;;;-144.73;100.00;54477.47;4996135;28;20021;-72
2023/08/29 08:20:33;;;;;;;4.78;3.63;;;;;;;-144.73;100.00;54461.06;4997600;28;20049;-72
2023/08/29 08:22:59;;;;;;;13.18;4.20;;;;;;;-144.73;100.00;54489.81;4985909;28;20030;-72
2023/08/29 08:25:25;;;;;;;10.02;4.05;;;;;;;-144.73;100.00;54485.69;5015690;28;20034;-71
2023/08/29 08:27:51;;;;;;;20.70;4.70;;;;;;;-144.73;100.00;54477.47;4996434;28;20109;-72
2023/08/29 08:30:16;;;;;;;6.25;3.60;;;;;;;-144.73;100.00;54440.53;4988088;28;20149;-72
2023/08/29 08:32:43;;;;;;;7.15;3.47;;;;;;;-144.73;100.00;54428.22;4992317;28;20156;-71
2023/08/29 08:35:10;;;;;;;7.78;4.32;;;;;;;-144.73;100.00;54485.69;4992559;28;20114;-72
2023/08/29 08:37:35;;;;;;;7.95;3.42;;;;;;;-144.73;100.00;54489.81;5006219;28;20060;-72
2023/08/29 08:40:09;;;;;;;10.88;3.92;;;;;;;-144.73;100.00;54502.13;4994831;28;20058;-72
2023/08/29 08:42:36;;;;;;;10.55;6.65;;;;;;;-144.73;100.00;54473.38;5000355;28;20144;-72
2023/08/29 08:45:05;;;;;;;7.43;3.97;;;;;;;-144.73;100.00;54448.75;4989205;28;20030;-72
2023/08/29 08:47:32;;;;;;;6.90;3.72;;;;;;;-144.73;100.00;54428.22;4994183;28;20042;-71
2023/08/29 08:49:57;;;;;;;6.68;4.30;;;;;;;-144.73;100.00;54465.16;4993195;28;20408;-72
2023/08/29 08:52:23;;;;;;;7.10;4.90;;;;;;;-144.73;100.00;54473.38;4987989;28;20022;-72
2023/08/29 08:54:48;;;;;;;15.18;4.25;;;;;;;-144.73;100.00;54465.16;4991715;28;20026;-72
2023/08/29 08:57:14;;;;;;;8.40;4.13;;;;;;;-144.73;100.00;54477.47;4987639;28;20042;-71
2023/08/29 08:59:41;;;;;;;13.25;4.88;;;;;;;-144.73;100.00;54489.81;4988309;28;20037;-72
2023/08/29 09:02:10;;;;;;;11.32;4.53;;;;;;;-144.73;100.00;54456.97;4990005;28;20030;-71
2023/08/29 09:04:35;;;;;;;8.90;3.80;;;;;;;-144.73;100.00;54452.84;5005315;28;20026;-71
2023/08/29 09:07:01;;;;;;;9.50;3.80;;;;;;;-144.73;100.00;54465.16;4982292;28;20024;-72
2023/08/29 09:09:26;;;;;;;13.23;4.50;;;;;;;-144.73;100.00;54461.06;4988041;28;20112;-72
2023/08/29 09:11:56;;;;;;;8.23;4.03;;;;;;;-144.73;100.00;54498.00;4995062;28;20030;-71
2023/08/29 09:14:23;;;;;;;7.65;3.83;;;;;;;-144.73;100.00;54448.75;4994956;28;20036;-71
2023/08/29 09:16:59;;;;;;;9.00;3.17;;;;;;;-144.73;100.00;54485.69;5014184;28;20080;-72
2023/08/29 09:19:29;;;;;;;5.55;3.00;;;;;;;-144.73;100.00;54473.38;4991576;28;20116;-72
2023/08/29 09:21:55;;;;;;;9.75;3.38;;;;;;;-144.73;100.00;54493.91;4989616;28;20025;-72
2023/08/29 09:24:31;;;;;;;6.60;3.08;;;;;;;-144.73;100.00;54461.06;4996643;28;20037;-72
2023/08/29 09:26:57;;;;;;;6.35;3.60;;;;;;;-144.73;100.00;54461.06;5000281;28;20033;-74
2023/08/29 09:29:23;;;;;;;10.80;3.35;;;;;;;-144.73;100.00;54426.16;4998908;28;20018;-71
2023/08/29 09:31:49;;;;;;;8.93;3.88;;;;;;;-144.73;100.00;54415.91;5003916;28;20022;-72
2023/08/29 09:34:29;;;;;;;11.43;4.20;;;;;;;-144.73;100.00;54481.59;5003035;28;20080;-72
2023/08/29 09:36:58;;;;;;;8.98;4.55;;;;;;;-144.73;100.00;54426.16;4989397;28;20026;-72
2023/08/29 09:39:23;;;;;;;6.82;4.50;;;;;;;-144.73;100.00;54444.66;4990224;28;20030;-73
2023/08/29 09:42:06;;;;;;;5.15;3.97;;;;;;;-144.73;100.00;54454.91;4997849;28;20048;-72
2023/08/29 09:44:36;;;;;;;7.55;4.55;;;;;;;-144.73;100.00;54452.84;4994551;28;20088;-72
2023/08/29 09:47:03;;;;;;;7.82;4.43;;;;;;;-144.73;100.00;54452.84;5008682;28;20021;-72
2023/08/29 09:49:43;;;;;;;11.68;4.70;;;;;;;-144.73;100.00;54442.59;4992649;28;20046;-72
2023/08/29 09:52:09;;;;;;;10.77;3.53;;;;;;;-144.73;100.00;54424.13;5008036;28;20393;-72
2023/08/29 09:54:38;;;;;;;6.97;3.50;;;;;;;-144.73;100.00;54477.47;4994787;28;20033;-73
2023/08/29 09:57:07;;;;;;;12.00;3.78;;;;;;;-144.73;100.00;54465.16;5019447;28;20037;-73
2023/08/29 09:59:38;;;;;;;5.70;3.03;;;;;;;-144.73;100.00;54446.69;5012007;28;20034;-73
2023/08/29 10:02:04;;;;;;;17.33;6.75;;;;;;;-144.73;100.00;54444.66;5020557;28;20014;-71
2023/08/29 10:04:32;;;;;;;9.00;4.28;;;;;;;-144.73;100.00;54448.75;4995165;28;20030;-72
2023/08/29 10:07:00;;;;;;;6.43;2.53;;;;;;;-144.73;100.00;54452.84;4997054;28;20032;-71
2023/08/29 10:09:28;;;;;;;7.03;2.50;;;;;;;-144.73;100.00;54456.97;4996876;28;20025;-72
2023/08/29 10:11:54;;;;;;;5.75;2.35;;;;;;;-144.73;100.00;54452.84;5005526;28;20030;-73
2023/08/29 10:14:22;;;;;;;5.05;2.38;;;;;;;-144.73;100.00;54407.69;4989682;28;20072;-72
2023/08/29 10:16:49;;;;;;;4.75;2.00;;;;;;;-144.73;100.00;54485.69;4991027;28;20032;-73
2023/08/29 10:19:15;;;;;;;12.15;3.55;;;;;;;-144.73;100.00;54465.16;4990900;28;20049;-72
2023/08/29 10:21:44;;;;;;;7.70;2.33;;;;;;;-144.73;100.00;54444.66;5010066;28;20033;-72
2023/08/29 10:24:13;;;;;;;5.60;1.88;;;;;;;-144.73;100.00;54465.16;4998506;28;20064;-72
2023/08/29 10:26:38;;;;;;;3.88;1.45;;;;;;;-144.73;100.00;54459.00;4992467;28;20076;-73
2023/08/29 10:29:05;;;;;;;7.50;1.63;;;;;;;-144.73;100.00;54452.84;4993117;28;20022;-72
2023/08/29 10:31:33;;;;;;;3.03;1.42;;;;;;;-144.73;98.69;54436.44;4992454;28;20461;-72
2023/08/29 10:34:00;;;;;;;4.35;1.92;;;;;;;-144.73;100.00;54391.28;4994331;28;20018;-72
2023/08/29 10:36:25;;;;;;;10.10;2.03;;;;;;;-144.73;100.00;54442.59;5005958;28;20042;-72
2023/08/29 10:38:50;;;;;;;4.40;1.50;;;;;;;-144.73;95.83;54415.91;4991563;28;20495;-72
2023/08/29 10:41:16;;;;;;;5.63;1.73;;;;;;;-144.73;92.10;54399.50;4991164;28;20092;-72
2023/08/29 10:43:42;;;;;;;4.68;1.75;;;;;;;-144.73;89.91;54420.00;5000103;28;20022;-72
2023/08/29 10:46:10;;;;;;;5.90;1.55;;;;;;;-144.73;84.93;54397.44;5017843;28;20033;-72
2023/08/29 10:48:35;;;;;;;2.53;1.40;;;;;;;-144.73;81.68;54415.91;4990614;28;20548;-72
2023/08/29 10:51:07;;;;;;;2.58;1.27;;;;;;;-144.73;78.43;54436.44;4995016;28;20026;-73
2023/08/29 10:54:05;;;;;;;2.42;1.20;;;;;;;-144.73;78.22;54432.31;4993709;28;20097;-73
2023/08/29 10:56:42;;;;;;;2.65;1.35;;;;;;;-144.73;75.25;54424.13;4990168;28;20060;-73
2023/08/29 10:59:27;;;;;;;3.25;1.55;;;;;;;-144.73;73.62;54370.75;5003386;28;20021;-73
2023/08/29 11:02:27;;;;;;;2.03;1.00;;;;;;;-144.73;73.86;54407.69;4995079;28;20037;-73
2023/08/29 11:05:04;;;;;;;4.03;1.40;;;;;;;-144.73;73.80;54407.69;5001595;28;20059;-72